createdAt,value
2023-05-09T00:00:14.860Z,10.09
2023-05-09T00:01:14.864Z,10.07
2023-05-09T00:02:14.907Z,10.13
2023-05-09T00:03:14.964Z,10.12
2023-05-09T00:04:14.872Z,10.05
2023-05-09T00:05:15.164Z,10.01
2023-05-09T00:06:14.815Z,9.99
2023-05-09T00:07:14.831Z,10.05
2023-05-09T00:08:14.809Z,10.01
2023-05-09T00:09:14.806Z,9.99
2023-05-09T00:10:14.788Z,9.94
2023-05-09T00:11:14.783Z,9.98
2023-05-09T00:12:14.809Z,9.92
2023-05-09T00:13:14.849Z,9.97
2023-05-09T00:14:14.764Z,9.91
2023-05-09T00:15:14.933Z,9.86
2023-05-09T00:16:14.796Z,9.87
2023-05-09T00:17:14.760Z,9.87
2023-05-09T00:18:14.719Z,9.87
2023-05-09T00:19:14.817Z,9.83
2023-05-09T00:20:14.786Z,9.84
2023-05-09T00:21:14.733Z,9.77
2023-05-09T00:22:14.721Z,9.68
2023-05-09T00:23:14.692Z,9.69
2023-05-09T00:24:14.695Z,9.74
2023-05-09T00:25:14.945Z,9.72
2023-05-09T00:26:14.679Z,9.69
2023-05-09T00:27:14.657Z,9.55
2023-05-09T00:28:14.660Z,9.59
2023-05-09T00:29:14.654Z,9.55
2023-05-09T00:30:14.626Z,9.65
2023-05-09T00:31:14.664Z,9.64
2023-05-09T00:32:14.723Z,9.55
2023-05-09T00:33:14.606Z,9.51
2023-05-09T00:34:14.605Z,9.55
2023-05-09T00:35:15.034Z,9.51
2023-05-09T00:36:14.609Z,9.46
2023-05-09T00:37:14.577Z,9.51
2023-05-09T00:38:14.622Z,9.44
2023-05-09T00:39:14.550Z,9.39
2023-05-09T00:40:14.572Z,9.34
2023-05-09T00:41:14.549Z,9.34
2023-05-09T00:42:14.538Z,9.44
2023-05-09T00:43:14.528Z,9.40
2023-05-09T00:44:14.522Z,9.37
2023-05-09T00:45:14.717Z,9.40
2023-05-09T00:46:14.505Z,9.36
2023-05-09T00:47:14.496Z,9.32
2023-05-09T00:48:14.488Z,9.31
2023-05-09T00:49:14.502Z,9.34
2023-05-09T00:50:14.505Z,9.25
2023-05-09T00:51:14.550Z,9.26
2023-05-09T00:52:14.465Z,9.14
2023-05-09T00:53:14.453Z,9.25
2023-05-09T00:54:14.474Z,9.26
2023-05-09T00:55:14.525Z,9.23
2023-05-09T00:56:14.424Z,9.21
2023-05-09T00:57:14.415Z,9.22
2023-05-09T00:58:14.408Z,9.14
2023-05-09T00:59:15.280Z,9.18
2023-05-09T01:00:14.395Z,9.16
2023-05-09T01:01:14.451Z,9.14
2023-05-09T01:02:14.384Z,9.11
2023-05-09T01:03:14.491Z,9.06
2023-05-09T01:04:14.380Z,8.99
2023-05-09T01:05:14.626Z,9.02
2023-05-09T01:06:14.348Z,8.97
2023-05-09T01:07:14.423Z,8.94
2023-05-09T01:08:14.365Z,8.99
2023-05-09T01:09:14.318Z,9.00
2023-05-09T01:10:14.308Z,9.11
2023-05-09T01:11:14.308Z,8.99
2023-05-09T01:12:14.291Z,9.06
2023-05-09T01:13:14.391Z,9.04
2023-05-09T01:14:14.277Z,9.03
2023-05-09T01:15:14.476Z,8.99
2023-05-09T01:16:14.281Z,9.00
2023-05-09T01:17:14.276Z,8.99
2023-05-09T01:18:14.371Z,9.08
2023-05-09T01:19:14.254Z,9.00
2023-05-09T01:20:14.243Z,9.03
2023-05-09T01:21:14.235Z,9.03
2023-05-09T01:22:14.277Z,8.95
2023-05-09T01:23:14.286Z,9.06
2023-05-09T01:24:14.200Z,8.99
2023-05-09T01:25:14.380Z,9.14
2023-05-09T01:26:14.188Z,9.02
2023-05-09T01:27:14.211Z,8.99
2023-05-09T01:28:14.178Z,9.14
2023-05-09T01:29:14.158Z,9.11
2023-05-09T01:30:14.196Z,9.08
2023-05-09T01:31:14.204Z,9.00
2023-05-09T01:32:14.160Z,9.13
2023-05-09T01:33:14.123Z,9.03
2023-05-09T01:34:14.118Z,9.21
2023-05-09T01:35:14.466Z,9.22
2023-05-09T01:36:14.128Z,9.25
2023-05-09T01:37:14.099Z,9.26
2023-05-09T01:38:14.098Z,9.25
2023-05-09T01:39:14.158Z,9.31
2023-05-09T01:40:14.071Z,9.29
2023-05-09T01:41:14.085Z,9.37
2023-05-09T01:42:14.140Z,9.44
2023-05-09T01:43:14.049Z,9.43
2023-05-09T01:44:14.088Z,9.37
2023-05-09T01:45:14.309Z,9.43
2023-05-09T01:46:14.072Z,9.51
2023-05-09T01:47:14.012Z,9.44
2023-05-09T01:48:14.009Z,9.56
2023-05-09T01:49:14.001Z,9.54
2023-05-09T01:50:14.039Z,9.47
2023-05-09T01:51:13.989Z,9.51
2023-05-09T01:52:14.002Z,9.55
2023-05-09T01:53:13.965Z,9.47
2023-05-09T01:54:13.968Z,9.51
2023-05-09T01:55:14.265Z,9.50
2023-05-09T01:56:13.956Z,9.54
2023-05-09T01:57:13.947Z,9.50
2023-05-09T01:58:13.936Z,9.51
2023-05-09T01:59:13.951Z,9.56
2023-05-09T02:00:13.944Z,9.43
2023-05-09T02:01:13.952Z,9.48
2023-05-09T02:02:13.911Z,9.44
2023-05-09T02:03:13.969Z,9.48
2023-05-09T02:04:13.946Z,9.46
2023-05-09T02:05:14.150Z,9.48
2023-05-09T02:06:13.870Z,9.43
2023-05-09T02:07:13.870Z,9.41
2023-05-09T02:08:13.853Z,9.50
2023-05-09T02:09:13.884Z,9.48
2023-05-09T02:10:13.837Z,9.46
2023-05-09T02:11:13.916Z,9.46
2023-05-09T02:12:13.909Z,9.40
2023-05-09T02:13:13.863Z,9.39
2023-05-09T02:14:13.826Z,9.47
2023-05-09T02:15:14.014Z,9.46
2023-05-09T02:16:13.832Z,9.50
2023-05-09T02:17:13.781Z,9.43
2023-05-09T02:18:13.809Z,9.39
2023-05-09T02:19:13.752Z,9.39
2023-05-09T02:20:14.754Z,9.40
2023-05-09T02:21:13.757Z,9.36
2023-05-09T02:22:45.679Z,9.36
2023-05-09T02:23:13.760Z,9.41
2023-05-09T02:24:13.730Z,9.36
2023-05-09T02:25:13.897Z,9.28
2023-05-09T02:26:13.710Z,9.37
2023-05-09T02:27:13.867Z,9.39
2023-05-09T02:28:13.720Z,9.32
2023-05-09T02:29:13.692Z,9.44
2023-05-09T02:30:13.685Z,9.32
2023-05-09T02:31:13.678Z,9.39
2023-05-09T02:32:13.991Z,9.37
2023-05-09T02:33:13.700Z,9.36
2023-05-09T02:34:13.649Z,9.23
2023-05-09T02:35:13.880Z,9.28
2023-05-09T02:36:13.632Z,9.22
2023-05-09T02:37:13.678Z,9.25
2023-05-09T02:38:14.627Z,9.04
2023-05-09T02:39:13.625Z,9.25
2023-05-09T02:40:13.596Z,9.25
2023-05-09T02:41:13.593Z,9.31
2023-05-09T02:42:13.613Z,9.21
2023-05-09T02:43:13.660Z,9.25
2023-05-09T02:44:13.567Z,9.25
2023-05-09T02:45:13.804Z,9.19
2023-05-09T02:46:13.621Z,9.19
2023-05-09T02:47:13.578Z,9.16
2023-05-09T02:48:13.567Z,9.11
2023-05-09T02:49:22.774Z,9.13
2023-05-09T02:50:15.534Z,9.13
2023-05-09T02:51:13.543Z,9.13
2023-05-09T02:52:13.509Z,9.13
2023-05-09T02:53:13.514Z,9.02
2023-05-09T02:54:13.495Z,9.02
2023-05-09T02:55:13.651Z,9.04
2023-05-09T02:56:13.503Z,8.99
2023-05-09T02:57:13.472Z,9.11
2023-05-09T02:58:15.011Z,9.04
2023-05-09T02:59:14.460Z,9.08
2023-05-09T03:00:13.580Z,9.04
2023-05-09T03:01:13.498Z,8.95
2023-05-09T03:02:13.434Z,8.99
2023-05-09T03:03:13.469Z,8.97
2023-05-09T03:04:13.420Z,8.95
2023-05-09T03:05:13.573Z,8.92
2023-05-09T03:06:13.426Z,8.87
2023-05-09T03:07:13.394Z,8.88
2023-05-09T03:08:13.381Z,8.87
2023-05-09T03:09:13.374Z,8.81
2023-05-09T03:10:13.402Z,8.84
2023-05-09T03:11:13.357Z,8.92
2023-05-09T03:12:13.352Z,8.87
2023-05-09T03:13:13.383Z,8.70
2023-05-09T03:14:13.342Z,8.67
2023-05-09T03:15:13.733Z,8.71
2023-05-09T03:16:13.341Z,8.73
2023-05-09T03:17:13.309Z,8.76
2023-05-09T03:18:13.296Z,8.69
2023-05-09T03:19:13.326Z,8.69
2023-05-09T03:20:13.307Z,8.66
2023-05-09T03:21:13.282Z,8.76
2023-05-09T03:22:13.260Z,8.64
2023-05-09T03:23:13.262Z,8.69
2023-05-09T03:24:13.273Z,8.64
2023-05-09T03:25:13.492Z,8.67
2023-05-09T03:26:13.237Z,8.61
2023-05-09T03:27:13.223Z,8.70
2023-05-09T03:28:13.218Z,8.69
2023-05-09T03:29:13.234Z,8.76
2023-05-09T03:30:13.215Z,8.51
2023-05-09T03:31:13.328Z,8.67
2023-05-09T03:32:15.132Z,8.55
2023-05-09T03:33:13.233Z,8.56
2023-05-09T03:34:13.234Z,8.55
2023-05-09T03:35:13.367Z,8.56
2023-05-09T03:36:13.151Z,8.49
2023-05-09T03:37:13.148Z,8.61
2023-05-09T03:38:13.164Z,8.60
2023-05-09T03:39:13.137Z,8.63
2023-05-09T03:40:13.130Z,8.56
2023-05-09T03:41:13.116Z,8.53
2023-05-09T03:42:13.129Z,8.52
2023-05-09T03:43:13.126Z,8.55
2023-05-09T03:44:13.093Z,8.46
2023-05-09T03:45:13.282Z,8.51
2023-05-09T03:46:13.130Z,8.55
2023-05-09T03:47:13.191Z,8.48
2023-05-09T03:48:13.133Z,8.46
2023-05-09T03:49:13.049Z,8.51
2023-05-09T03:50:13.067Z,8.48
2023-05-09T03:51:13.048Z,8.49
2023-05-09T03:52:13.057Z,8.51
2023-05-09T03:53:13.022Z,8.52
2023-05-09T03:54:13.025Z,8.53
2023-05-09T03:55:13.240Z,8.55
2023-05-09T03:56:12.996Z,8.61
2023-05-09T03:57:13.014Z,8.63
2023-05-09T03:58:12.986Z,8.64
2023-05-09T03:59:12.972Z,8.56
2023-05-09T04:00:12.969Z,8.66
2023-05-09T04:01:12.978Z,8.64
2023-05-09T04:02:13.018Z,8.84
2023-05-09T04:03:13.068Z,9.02
2023-05-09T04:04:12.976Z,9.34
2023-05-09T04:05:13.070Z,9.47
2023-05-09T04:06:12.961Z,9.69
2023-05-09T04:07:12.910Z,9.83
2023-05-09T04:08:12.906Z,9.84
2023-05-09T04:09:12.895Z,9.97
2023-05-09T04:10:12.887Z,10.04
2023-05-09T04:11:12.905Z,10.20
2023-05-09T04:12:12.870Z,10.26
2023-05-09T04:13:12.953Z,10.56
2023-05-09T04:14:12.858Z,10.74
2023-05-09T04:15:13.001Z,10.99
2023-05-09T04:16:12.867Z,11.29
2023-05-09T04:17:12.845Z,11.51
2023-05-09T04:18:12.830Z,11.69
2023-05-09T04:19:12.899Z,11.91
2023-05-09T04:20:12.842Z,12.18
2023-05-09T04:21:12.826Z,12.36
2023-05-09T04:22:12.789Z,12.62
2023-05-09T04:23:12.786Z,12.79
2023-05-09T04:24:12.778Z,12.86
2023-05-09T04:25:12.966Z,13.15
2023-05-09T04:26:12.761Z,13.28
2023-05-09T04:27:12.754Z,13.52
2023-05-09T04:28:12.762Z,13.68
2023-05-09T04:29:12.747Z,13.87
2023-05-09T04:30:12.754Z,13.93
2023-05-09T04:31:12.825Z,14.22
2023-05-09T04:32:12.762Z,14.41
2023-05-09T04:33:12.708Z,14.54
2023-05-09T04:34:12.732Z,14.81
2023-05-09T04:35:13.036Z,14.97
2023-05-09T04:36:12.683Z,15.06
2023-05-09T04:37:12.681Z,15.33
2023-05-09T04:38:12.668Z,15.57
2023-05-09T04:39:12.682Z,15.73
2023-05-09T04:40:12.652Z,15.90
2023-05-09T04:41:12.649Z,16.10
2023-05-09T04:42:12.641Z,16.41
2023-05-09T04:43:12.631Z,16.50
2023-05-09T04:44:12.649Z,16.58
2023-05-09T04:45:12.929Z,16.54
2023-05-09T04:46:12.651Z,16.65
2023-05-09T04:47:12.594Z,16.79
2023-05-09T04:48:12.610Z,16.84
2023-05-09T04:49:12.606Z,16.99
2023-05-09T04:50:12.585Z,17.09
2023-05-09T04:51:12.643Z,17.33
2023-05-09T04:52:12.565Z,17.41
2023-05-09T04:53:12.571Z,17.54
2023-05-09T04:54:12.548Z,17.65
2023-05-09T04:55:12.663Z,17.56
2023-05-09T04:56:12.522Z,17.87
2023-05-09T04:57:17.764Z,17.82
2023-05-09T04:58:14.546Z,17.97
2023-05-09T04:59:12.507Z,17.98
2023-05-09T05:00:12.498Z,18.23
2023-05-09T05:01:12.585Z,18.43
2023-05-09T05:02:12.484Z,18.43
2023-05-09T05:03:12.501Z,18.28
2023-05-09T05:04:12.486Z,18.50
2023-05-09T05:05:12.812Z,18.47
2023-05-09T05:06:13.459Z,18.37
2023-05-09T05:07:12.541Z,18.40
2023-05-09T05:08:12.464Z,18.41
2023-05-09T05:09:12.426Z,18.52
2023-05-09T05:10:12.420Z,18.78
2023-05-09T05:11:12.414Z,19.45
2023-05-09T05:12:12.436Z,19.73
2023-05-09T05:13:12.416Z,19.79
2023-05-09T05:14:12.386Z,19.82
2023-05-09T05:15:12.487Z,19.86
2023-05-09T05:16:12.415Z,19.96
2023-05-09T05:17:12.390Z,19.91
2023-05-09T05:18:12.376Z,19.89
2023-05-09T05:19:12.354Z,19.85
2023-05-09T05:20:12.345Z,19.67
2023-05-09T05:21:12.382Z,19.77
2023-05-09T05:22:12.346Z,19.91
2023-05-09T05:23:12.397Z,19.79
2023-05-09T05:24:12.312Z,19.24
2023-05-09T05:25:12.455Z,18.90
2023-05-09T05:26:12.321Z,18.53
2023-05-09T05:27:12.289Z,18.49
2023-05-09T05:28:12.281Z,18.45
2023-05-09T05:29:12.290Z,18.43
2023-05-09T05:30:12.277Z,18.86
2023-05-09T05:31:12.302Z,18.75
2023-05-09T05:32:12.258Z,18.96
2023-05-09T05:33:12.277Z,19.15
2023-05-09T05:34:12.238Z,19.40
2023-05-09T05:35:12.463Z,20.00
2023-05-09T05:36:12.250Z,20.37
2023-05-09T05:37:12.219Z,20.85
2023-05-09T05:38:12.214Z,21.27
2023-05-09T05:39:12.277Z,21.40
2023-05-09T05:40:12.231Z,21.46
2023-05-09T05:41:12.182Z,21.73
2023-05-09T05:42:12.179Z,21.88
2023-05-09T05:43:12.182Z,22.04
2023-05-09T05:44:12.160Z,22.13
2023-05-09T05:45:12.402Z,22.23
2023-05-09T05:46:12.233Z,22.53
2023-05-09T05:47:12.140Z,22.93
2023-05-09T05:48:12.180Z,23.18
2023-05-09T05:49:12.170Z,22.90
2023-05-09T05:50:12.234Z,22.91
2023-05-09T05:51:12.111Z,22.50
2023-05-09T05:52:12.099Z,22.20
2023-05-09T05:53:12.093Z,22.33
2023-05-09T05:54:12.114Z,22.53
2023-05-09T05:55:12.297Z,22.18
2023-05-09T05:56:12.069Z,22.20
2023-05-09T05:57:12.106Z,22.22
2023-05-09T05:58:12.059Z,22.20
2023-05-09T05:59:13.531Z,22.10
2023-05-09T06:00:13.051Z,22.20
2023-05-09T06:01:12.030Z,22.38
2023-05-09T06:02:12.085Z,22.53
2023-05-09T06:03:12.106Z,23.00
2023-05-09T06:04:12.065Z,22.96
2023-05-09T06:05:12.082Z,22.78
2023-05-09T06:06:12.013Z,22.84
2023-05-09T06:07:12.018Z,22.65
2023-05-09T06:08:12.017Z,22.54
2023-05-09T06:09:11.999Z,22.81
2023-05-09T06:10:11.985Z,23.10
2023-05-09T06:11:12.051Z,23.48
2023-05-09T06:12:11.967Z,23.03
2023-05-09T06:13:12.043Z,23.09
2023-05-09T06:14:11.957Z,23.37
2023-05-09T06:15:12.003Z,23.41
2023-05-09T06:16:19.286Z,23.31
2023-05-09T06:17:14.011Z,23.02
2023-05-09T06:18:11.965Z,23.18
2023-05-09T06:19:11.918Z,23.27
2023-05-09T06:20:11.916Z,23.50
2023-05-09T06:21:11.970Z,23.76
2023-05-09T06:22:11.925Z,23.86
2023-05-09T06:23:11.902Z,23.71
2023-05-09T06:24:19.791Z,22.93
2023-05-09T06:25:14.150Z,22.30
2023-05-09T06:26:11.882Z,21.40
2023-05-09T06:27:11.897Z,20.97
2023-05-09T06:28:11.864Z,20.58
2023-05-09T06:29:11.869Z,20.93
2023-05-09T06:30:24.827Z,21.95
2023-05-09T06:31:13.904Z,23.09
2023-05-09T06:32:11.873Z,23.80
2023-05-09T06:33:11.828Z,24.36
2023-05-09T06:34:11.827Z,24.93
2023-05-09T06:35:11.921Z,25.07
2023-05-09T06:36:11.882Z,25.48
2023-05-09T06:37:11.809Z,25.31
2023-05-09T06:38:11.799Z,25.50
2023-05-09T06:39:11.793Z,25.43
2023-05-09T06:40:11.785Z,25.38
2023-05-09T06:41:11.819Z,24.86
2023-05-09T06:42:11.785Z,24.39
2023-05-09T06:43:12.866Z,24.39
2023-05-09T06:44:11.760Z,24.50
2023-05-09T06:45:11.894Z,24.73
2023-05-09T06:46:11.810Z,25.10
2023-05-09T06:47:11.776Z,25.11
2023-05-09T06:48:11.738Z,25.22
2023-05-09T06:49:11.727Z,25.69
2023-05-09T06:50:11.754Z,25.99
2023-05-09T06:51:11.714Z,26.40
2023-05-09T06:52:11.707Z,25.98
2023-05-09T06:53:11.699Z,25.98
2023-05-09T06:54:11.696Z,26.15
2023-05-09T06:55:11.720Z,26.18
2023-05-09T06:56:11.682Z,26.36
2023-05-09T06:57:11.673Z,26.16
2023-05-09T06:58:11.675Z,26.41
2023-05-09T06:59:11.738Z,26.58
2023-05-09T07:00:11.741Z,26.28
2023-05-09T07:01:11.664Z,25.29
2023-05-09T07:02:11.646Z,23.86
2023-05-09T07:03:11.769Z,22.80
2023-05-09T07:04:11.654Z,21.96
2023-05-09T07:05:11.733Z,21.39
2023-05-09T07:06:11.622Z,21.07
2023-05-09T07:07:11.614Z,20.90
2023-05-09T07:08:11.604Z,20.82
2023-05-09T07:09:11.623Z,20.78
2023-05-09T07:10:13.067Z,21.02
2023-05-09T07:11:12.583Z,21.00
2023-05-09T07:12:11.585Z,20.87
2023-05-09T07:13:11.583Z,20.69
2023-05-09T07:14:11.590Z,20.52
2023-05-09T07:15:11.645Z,20.52
2023-05-09T07:16:11.597Z,20.40
2023-05-09T07:17:22.922Z,20.59
2023-05-09T07:18:13.560Z,20.62
2023-05-09T07:19:11.564Z,20.81
2023-05-09T07:20:11.550Z,21.58
2023-05-09T07:21:11.517Z,22.30
2023-05-09T07:22:11.541Z,22.96
2023-05-09T07:23:11.525Z,23.91
2023-05-09T07:24:11.501Z,24.54
2023-05-09T07:25:11.497Z,25.40
2023-05-09T07:26:11.487Z,25.84
2023-05-09T07:27:11.476Z,25.98
2023-05-09T07:28:11.506Z,26.29
2023-05-09T07:29:11.467Z,26.66
2023-05-09T07:30:11.462Z,26.26
2023-05-09T07:31:11.521Z,26.96
2023-05-09T07:32:11.491Z,27.15
2023-05-09T07:33:11.508Z,27.78
2023-05-09T07:34:11.431Z,27.75
2023-05-09T07:35:11.418Z,27.32
2023-05-09T07:36:11.423Z,26.92
2023-05-09T07:37:12.935Z,26.68
2023-05-09T07:38:11.399Z,27.07
2023-05-09T07:39:11.402Z,27.35
2023-05-09T07:40:11.381Z,27.25
2023-05-09T07:41:11.428Z,27.17
2023-05-09T07:42:11.402Z,26.38
2023-05-09T07:43:11.376Z,26.18
2023-05-09T07:44:11.362Z,26.93
2023-05-09T07:45:11.367Z,27.11
2023-05-09T07:46:11.387Z,27.30
2023-05-09T07:47:11.419Z,26.90
2023-05-09T07:48:11.361Z,26.60
2023-05-09T07:49:11.326Z,26.73
2023-05-09T07:50:11.330Z,27.18
2023-05-09T07:51:11.333Z,27.07
2023-05-09T07:52:11.313Z,26.28
2023-05-09T07:53:11.299Z,25.98
2023-05-09T07:54:11.290Z,26.26
2023-05-09T07:55:11.316Z,27.14
2023-05-09T07:56:11.309Z,27.59
2023-05-09T07:57:11.266Z,28.20
2023-05-09T07:58:11.261Z,28.89
2023-05-09T07:59:11.261Z,29.19
2023-05-09T08:00:11.275Z,29.17
2023-05-09T08:01:11.259Z,29.08
2023-05-09T08:02:11.254Z,29.49
2023-05-09T08:03:11.570Z,29.44
2023-05-09T08:04:11.295Z,29.38
2023-05-09T08:05:11.257Z,29.29
2023-05-09T08:06:11.239Z,28.96
2023-05-09T08:07:11.209Z,28.63
2023-05-09T08:08:11.805Z,28.84
2023-05-09T08:09:11.219Z,29.36
2023-05-09T08:10:11.234Z,29.68
2023-05-09T08:11:11.200Z,29.08
2023-05-09T08:12:11.182Z,28.60
2023-05-09T08:13:11.182Z,28.75
2023-05-09T08:14:11.839Z,28.81
2023-05-09T08:15:11.157Z,28.96
2023-05-09T08:16:11.189Z,29.14
2023-05-09T08:17:11.140Z,29.39
2023-05-09T08:18:11.141Z,29.39
2023-05-09T08:19:11.257Z,28.97
2023-05-09T08:20:11.131Z,29.23
2023-05-09T08:21:11.110Z,29.31
2023-05-09T08:22:11.105Z,29.75
2023-05-09T08:23:11.113Z,30.00
2023-05-09T08:24:43.030Z,30.09
2023-05-09T08:25:11.107Z,30.18
2023-05-09T08:26:11.072Z,30.32
2023-05-09T08:27:11.083Z,30.62
2023-05-09T08:28:11.113Z,30.63
2023-05-09T08:29:11.077Z,30.06
2023-05-09T08:30:12.051Z,28.89
2023-05-09T08:31:11.079Z,28.39
2023-05-09T08:32:11.034Z,29.10
2023-05-09T08:33:11.129Z,29.44
2023-05-09T08:34:11.026Z,30.06
2023-05-09T08:35:11.108Z,29.97
2023-05-09T08:36:11.013Z,30.13
2023-05-09T08:37:12.284Z,29.72
2023-05-09T08:38:11.028Z,29.20
2023-05-09T08:39:10.994Z,29.27
2023-05-09T08:40:10.989Z,29.59
2023-05-09T08:41:10.996Z,29.87
2023-05-09T08:42:11.008Z,29.78
2023-05-09T08:43:10.993Z,29.24
2023-05-09T08:44:10.979Z,29.44
2023-05-09T08:45:10.949Z,29.61
2023-05-09T08:46:11.051Z,28.60
2023-05-09T08:47:10.943Z,28.93
2023-05-09T08:48:10.966Z,28.02
2023-05-09T08:49:10.943Z,28.02
2023-05-09T08:50:10.915Z,28.47
2023-05-09T08:51:11.014Z,29.32
2023-05-09T08:52:10.925Z,29.35
2023-05-09T08:53:10.925Z,28.81
2023-05-09T08:54:10.897Z,28.19
2023-05-09T08:55:10.887Z,28.19
2023-05-09T08:56:10.876Z,28.33
2023-05-09T08:57:10.902Z,28.89
2023-05-09T08:58:10.878Z,29.35
2023-05-09T08:59:10.887Z,29.36
2023-05-09T09:00:10.858Z,28.97
2023-05-09T09:01:10.867Z,27.42
2023-05-09T09:02:11.026Z,26.92
2023-05-09T09:03:10.855Z,26.65
2023-05-09T09:04:10.830Z,26.89
2023-05-09T09:05:23.741Z,26.75
2023-05-09T09:06:12.838Z,27.10
2023-05-09T09:07:10.918Z,27.59
2023-05-09T09:08:10.845Z,27.22
2023-05-09T09:09:10.795Z,27.26
2023-05-09T09:10:10.778Z,27.58
2023-05-09T09:11:10.810Z,27.85
2023-05-09T09:12:10.770Z,28.19
2023-05-09T09:13:11.327Z,28.22
2023-05-09T09:14:10.764Z,28.39
2023-05-09T09:15:10.763Z,28.12
2023-05-09T09:16:10.793Z,27.78
2023-05-09T09:17:10.745Z,27.90
2023-05-09T09:18:10.759Z,28.15
2023-05-09T09:19:10.731Z,28.04
2023-05-09T09:20:10.850Z,27.93
2023-05-09T09:21:10.742Z,27.49
2023-05-09T09:22:10.708Z,26.84
2023-05-09T09:23:10.880Z,26.44
2023-05-09T09:24:10.696Z,25.85
2023-05-09T09:25:10.727Z,25.36
2023-05-09T09:26:10.677Z,24.85
2023-05-09T09:27:10.666Z,24.73
2023-05-09T09:28:10.669Z,24.24
2023-05-09T09:29:10.660Z,23.98
2023-05-09T09:30:10.684Z,23.58
2023-05-09T09:31:10.646Z,23.66
2023-05-09T09:32:10.667Z,23.61
2023-05-09T09:33:10.650Z,23.74
2023-05-09T09:34:11.640Z,23.93
2023-05-09T09:35:10.623Z,24.55
2023-05-09T09:36:11.603Z,24.54
2023-05-09T09:37:10.595Z,24.63
2023-05-09T09:38:10.584Z,24.81
2023-05-09T09:39:10.685Z,24.91
2023-05-09T09:40:10.582Z,24.76
2023-05-09T09:41:10.569Z,24.81
2023-05-09T09:42:10.567Z,24.66
2023-05-09T09:43:10.561Z,24.33
2023-05-09T09:44:10.576Z,24.48
2023-05-09T09:45:10.533Z,24.40
2023-05-09T09:46:10.662Z,23.91
2023-05-09T09:47:10.524Z,23.61
2023-05-09T09:48:10.580Z,23.48
2023-05-09T09:49:10.543Z,23.46
2023-05-09T09:50:10.509Z,23.51
2023-05-09T09:51:10.501Z,23.54
2023-05-09T09:52:10.500Z,23.58
2023-05-09T09:53:10.523Z,23.55
2023-05-09T09:54:10.483Z,23.71
2023-05-09T09:55:10.555Z,23.88
2023-05-09T09:56:10.475Z,23.86
2023-05-09T09:57:10.451Z,23.95
2023-05-09T09:58:10.490Z,23.99
2023-05-09T09:59:10.434Z,24.05
2023-05-09T10:00:10.421Z,24.16
2023-05-09T10:01:10.467Z,24.05
2023-05-09T10:02:10.444Z,23.99
2023-05-09T10:03:10.495Z,23.92
2023-05-09T10:04:10.433Z,23.87
2023-05-09T10:05:10.396Z,23.73
2023-05-09T10:06:10.391Z,23.59
2023-05-09T10:07:11.850Z,23.48
2023-05-09T10:08:10.371Z,23.47
2023-05-09T10:09:10.372Z,23.36
2023-05-09T10:10:10.350Z,23.56
2023-05-09T10:11:10.453Z,23.48
2023-05-09T10:12:10.357Z,23.54
2023-05-09T10:13:10.374Z,23.27
2023-05-09T10:14:10.318Z,23.21
2023-05-09T10:15:10.321Z,23.20
2023-05-09T10:16:10.541Z,23.09
2023-05-09T10:17:10.353Z,23.00
2023-05-09T10:18:10.415Z,22.75
2023-05-09T10:19:10.336Z,22.75
2023-05-09T10:20:10.300Z,22.93
2023-05-09T10:21:10.354Z,23.21
2023-05-09T10:22:10.261Z,23.27
2023-05-09T10:23:10.246Z,23.44
2023-05-09T10:24:11.262Z,23.86
2023-05-09T10:25:10.260Z,23.95
2023-05-09T10:26:10.264Z,24.14
2023-05-09T10:27:10.303Z,24.14
2023-05-09T10:28:10.221Z,23.95
2023-05-09T10:29:10.216Z,23.93
2023-05-09T10:30:10.274Z,23.99
2023-05-09T10:31:10.245Z,24.02
2023-05-09T10:32:10.185Z,23.96
2023-05-09T10:33:10.255Z,23.86
2023-05-09T10:34:10.172Z,23.56
2023-05-09T10:35:10.188Z,23.55
2023-05-09T10:36:10.161Z,23.32
2023-05-09T10:37:10.142Z,23.21
2023-05-09T10:38:10.149Z,23.10
2023-05-09T10:39:10.146Z,22.87
2023-05-09T10:40:10.177Z,22.85
2023-05-09T10:41:10.122Z,22.78
2023-05-09T10:42:10.119Z,22.69
2023-05-09T10:43:10.190Z,22.83
2023-05-09T10:44:10.113Z,22.98
2023-05-09T10:45:10.116Z,22.90
2023-05-09T10:46:10.101Z,22.78
2023-05-09T10:47:10.069Z,22.80
2023-05-09T10:48:11.073Z,22.72
2023-05-09T10:49:10.074Z,22.84
2023-05-09T10:50:10.051Z,22.91
2023-05-09T10:51:10.078Z,23.21
2023-05-09T10:52:10.026Z,23.41
2023-05-09T10:53:10.024Z,23.58
2023-05-09T10:54:10.041Z,23.74
2023-05-09T10:55:10.008Z,23.71
2023-05-09T10:56:09.996Z,23.68
2023-05-09T10:57:10.024Z,23.78
2023-05-09T10:58:10.005Z,23.81
2023-05-09T10:59:10.067Z,23.86
2023-05-09T11:00:10.979Z,23.92
2023-05-09T11:01:09.978Z,23.93
2023-05-09T11:02:09.970Z,23.68
2023-05-09T11:03:10.096Z,23.58
2023-05-09T11:04:09.963Z,23.65
2023-05-09T11:05:09.943Z,23.55
2023-05-09T11:06:09.931Z,23.36
2023-05-09T11:07:09.908Z,23.51
2023-05-09T11:08:09.930Z,23.40
2023-05-09T11:09:09.913Z,23.62
2023-05-09T11:10:09.949Z,23.81
2023-05-09T11:11:09.893Z,23.81
2023-05-09T11:12:09.888Z,23.92
2023-05-09T11:13:10.011Z,23.87
2023-05-09T11:14:09.892Z,23.68
2023-05-09T11:15:09.948Z,23.61
2023-05-09T11:16:09.939Z,23.58
2023-05-09T11:17:09.931Z,23.50
2023-05-09T11:18:09.906Z,23.41
2023-05-09T11:19:09.818Z,23.51
2023-05-09T11:20:09.813Z,23.58
2023-05-09T11:21:09.799Z,23.48
2023-05-09T11:22:09.815Z,23.36
2023-05-09T11:23:09.789Z,23.36
2023-05-09T11:24:09.774Z,23.58
2023-05-09T11:25:09.767Z,23.59
2023-05-09T11:26:09.772Z,23.74
2023-05-09T11:27:09.808Z,23.78
2023-05-09T11:28:09.746Z,23.87
2023-05-09T11:29:09.743Z,23.84
2023-05-09T11:30:09.765Z,23.88
2023-05-09T11:31:09.852Z,23.81
2023-05-09T11:32:09.817Z,23.59
2023-05-09T11:33:09.751Z,23.31
2023-05-09T11:34:09.706Z,23.63
2023-05-09T11:35:09.702Z,23.74
2023-05-09T11:36:09.720Z,23.88
2023-05-09T11:37:09.698Z,23.62
2023-05-09T11:38:09.685Z,23.46
2023-05-09T11:39:09.675Z,23.46
2023-05-09T11:40:09.680Z,23.54
2023-05-09T11:41:09.695Z,23.55
2023-05-09T11:42:09.642Z,23.59
2023-05-09T11:43:09.676Z,23.54
2023-05-09T11:44:09.632Z,23.28
2023-05-09T11:45:09.620Z,23.06
2023-05-09T11:46:09.692Z,23.05
2023-05-09T11:47:09.684Z,22.99
2023-05-09T11:48:09.658Z,22.96
2023-05-09T11:49:11.435Z,22.96
2023-05-09T11:50:09.616Z,22.91
2023-05-09T11:51:09.598Z,22.85
2023-05-09T11:52:09.585Z,22.99
2023-05-09T11:53:09.585Z,23.23
2023-05-09T11:54:09.567Z,23.40
2023-05-09T11:55:12.049Z,23.61
2023-05-09T11:56:09.552Z,23.62
2023-05-09T11:57:09.539Z,23.69
2023-05-09T11:58:09.522Z,23.81
2023-05-09T11:59:09.525Z,23.80
2023-05-09T12:00:09.531Z,23.87
2023-05-09T12:01:11.778Z,24.02
2023-05-09T12:02:09.514Z,24.23
2023-05-09T12:03:09.572Z,24.23
2023-05-09T12:04:09.554Z,24.21
2023-05-09T12:05:09.501Z,24.08
2023-05-09T12:06:09.480Z,24.42
2023-05-09T12:07:09.474Z,24.80
2023-05-09T12:08:09.438Z,24.76
2023-05-09T12:09:09.468Z,24.68
2023-05-09T12:10:09.471Z,24.73
2023-05-09T12:11:09.412Z,24.69
2023-05-09T12:12:09.418Z,24.88
2023-05-09T12:13:09.437Z,24.96
2023-05-09T12:14:09.428Z,25.10
2023-05-09T12:15:09.401Z,25.06
2023-05-09T12:16:09.420Z,25.01
2023-05-09T12:17:09.391Z,24.93
2023-05-09T12:18:09.424Z,24.88
2023-05-09T12:19:09.458Z,24.78
2023-05-09T12:20:09.355Z,24.92
2023-05-09T12:21:09.336Z,24.93
2023-05-09T12:22:09.332Z,25.14
2023-05-09T12:23:09.355Z,25.23
2023-05-09T12:24:09.312Z,25.22
2023-05-09T12:25:09.314Z,25.07
2023-05-09T12:26:09.305Z,24.86
2023-05-09T12:27:09.297Z,25.10
2023-05-09T12:28:09.316Z,24.96
2023-05-09T12:29:09.283Z,24.92
2023-05-09T12:30:09.276Z,24.99
2023-05-09T12:31:09.305Z,24.86
2023-05-09T12:32:09.286Z,24.93
2023-05-09T12:33:09.282Z,25.04
2023-05-09T12:34:09.239Z,25.11
2023-05-09T12:35:09.322Z,25.35
2023-05-09T12:36:09.232Z,25.44
2023-05-09T12:37:09.261Z,25.65
2023-05-09T12:38:10.212Z,25.41
2023-05-09T12:39:09.207Z,25.33
2023-05-09T12:40:09.199Z,25.38
2023-05-09T12:41:18.197Z,25.21
2023-05-09T12:42:11.193Z,25.08
2023-05-09T12:43:09.178Z,24.93
2023-05-09T12:44:09.161Z,24.76
2023-05-09T12:45:09.246Z,24.77
2023-05-09T12:46:09.145Z,24.86
2023-05-09T12:47:09.198Z,24.86
2023-05-09T12:48:09.174Z,24.92
2023-05-09T12:49:09.121Z,25.04
2023-05-09T12:50:09.106Z,25.13
2023-05-09T12:51:09.210Z,24.93
2023-05-09T12:52:09.999Z,24.89
2023-05-09T12:53:10.080Z,24.84
2023-05-09T12:54:09.078Z,24.89
2023-05-09T12:55:09.080Z,24.84
2023-05-09T12:56:09.087Z,24.89
2023-05-09T12:57:09.075Z,24.98
2023-05-09T12:58:09.049Z,24.98
2023-05-09T12:59:09.038Z,24.80
2023-05-09T13:00:09.037Z,24.73